Impacts TAF Board
For situational awareness. Not to be used for flight planning purposes.
IDs:

KPHL - Philadelphia Intl, PA, US

Issued at 1909 UTC 20 Sep 2018
Updated at 2054 UTC 20 Sep 2018
Potential Impact None Slight Moderate High
Time<<21/09Z 21/10Z 21/11Z 21/12Z 21/13Z 21/14Z 21/15Z 21/16Z 21/17Z 21/18Z 21/19Z 21/20Z 21/21Z>>
Type PRVL PRVL PRVL PRVL PRVL PRVL PRVL PRVL PRVL PRVL PRVL PRVL PRVL
VIS >6 >6 >6 >6 >6 >6 >6 >6 >6 >6 >6 >6 >6
CIG 25 25 15 15 15 15 15 25 25 25 25 25 150
Cover OVC OVC OVC OVC OVC OVC OVC BKN BKN BKN BKN BKN BKN
FltCat MVFR MVFR MVFR MVFR MVFR MVFR MVFR MVFR MVFR MVFR MVFR MVFR VFR
WX -- -- -- -- -- -- -- -- -- -- -- -- --
WDir 140 140 170 170 170 170 170 190 190 190 190 190 200
WSpd 3 3 6 6 6 6 6 9 9 9 9 9 12
WGst -- -- -- -- -- -- -- -- -- -- -- -- --
Raw TAF
KPHL 201909Z 2019/2124 12007KT P6SM SCT025 OVC050
  FM210400 14003KT P6SM OVC025
  FM211100 17006KT P6SM OVC015
  FM211600 19009KT P6SM SCT015 BKN025
  FM212100 20012KT P6SM SCT060 BKN150


METAR Board
Radar Display
Forecast Discussion
For situational awareness. Not to be used for flight planning purposes.